createdAt,value
2019-02-25T00:00:47.802Z,4.10
2019-02-25T00:01:47.802Z,4.07
2019-02-25T00:02:47.783Z,4.07
2019-02-25T00:03:47.771Z,4.10
2019-02-25T00:04:47.773Z,4.08
2019-02-25T00:05:47.749Z,4.01
2019-02-25T00:06:47.746Z,4.16
2019-02-25T00:07:47.740Z,4.10
2019-02-25T00:08:47.715Z,4.07
2019-02-25T00:09:47.705Z,4.06
2019-02-25T00:10:47.693Z,4.08
2019-02-25T00:11:47.687Z,4.04
2019-02-25T00:12:47.671Z,3.90
2019-02-25T00:13:47.674Z,3.97
2019-02-25T00:14:47.654Z,3.92
2019-02-25T00:15:47.642Z,3.90
2019-02-25T00:16:47.629Z,3.76
2019-02-25T00:17:47.621Z,3.83
2019-02-25T00:18:47.606Z,3.79
2019-02-25T00:19:47.607Z,3.79
2019-02-25T00:20:47.585Z,3.78
2019-02-25T00:21:47.578Z,3.78
2019-02-25T00:22:47.562Z,3.80
2019-02-25T00:23:47.554Z,3.72
2019-02-25T00:24:47.541Z,3.79
2019-02-25T00:25:47.542Z,3.89
2019-02-25T00:26:47.520Z,3.80
2019-02-25T00:27:47.516Z,3.79
2019-02-25T00:28:47.499Z,3.76
2019-02-25T00:29:47.487Z,3.70
2019-02-25T00:30:47.490Z,3.76
2019-02-25T00:31:47.532Z,3.71
2019-02-25T00:32:47.454Z,3.65
2019-02-25T00:33:47.443Z,3.72
2019-02-25T00:34:47.432Z,3.68
2019-02-25T00:35:47.424Z,3.65
2019-02-25T00:36:47.415Z,3.67
2019-02-25T00:37:47.410Z,3.61
2019-02-25T00:38:47.389Z,3.65
2019-02-25T00:39:47.381Z,3.68
2019-02-25T00:40:47.381Z,3.68
2019-02-25T00:41:47.358Z,3.70
2019-02-25T00:42:47.348Z,3.64
2019-02-25T00:43:47.347Z,3.78
2019-02-25T00:44:47.325Z,3.65
2019-02-25T00:45:47.317Z,3.71
2019-02-25T00:46:47.304Z,3.76
2019-02-25T00:47:47.293Z,3.68
2019-02-25T00:48:47.283Z,3.67
2019-02-25T00:49:47.293Z,3.71
2019-02-25T00:50:47.261Z,3.70
2019-02-25T00:51:47.250Z,3.72
2019-02-25T00:52:47.239Z,3.68
2019-02-25T00:53:47.228Z,3.67
2019-02-25T00:54:47.220Z,3.72
2019-02-25T00:55:47.232Z,3.61
2019-02-25T00:56:47.196Z,3.54
2019-02-25T00:57:47.185Z,3.52
2019-02-25T00:58:47.177Z,3.46
2019-02-25T00:59:47.170Z,3.47
2019-02-25T01:00:47.153Z,3.42
2019-02-25T01:01:47.156Z,3.44
2019-02-25T01:02:47.132Z,3.33
2019-02-25T01:03:47.121Z,3.34
2019-02-25T01:04:47.109Z,3.28
2019-02-25T01:05:47.099Z,3.33
2019-02-25T01:06:47.089Z,3.18
2019-02-25T01:07:47.089Z,3.30
2019-02-25T01:08:47.067Z,3.28
2019-02-25T01:09:47.058Z,3.20
2019-02-25T01:10:47.048Z,3.24
2019-02-25T01:11:47.036Z,3.34
2019-02-25T01:12:47.026Z,3.31
2019-02-25T01:13:47.026Z,3.25
2019-02-25T01:14:47.004Z,3.36
2019-02-25T01:15:46.994Z,3.27
2019-02-25T01:16:46.983Z,3.24
2019-02-25T01:17:46.973Z,3.27
2019-02-25T01:18:46.963Z,3.18
2019-02-25T01:19:46.962Z,3.23
2019-02-25T01:20:46.941Z,3.24
2019-02-25T01:21:46.944Z,3.23
2019-02-25T01:22:46.919Z,3.24
2019-02-25T01:23:48.875Z,3.16
2019-02-25T01:24:46.899Z,3.16
2019-02-25T01:25:46.910Z,3.10
2019-02-25T01:26:46.878Z,3.06
2019-02-25T01:27:46.874Z,3.07
2019-02-25T01:28:46.857Z,3.05
2019-02-25T01:29:46.849Z,3.06
2019-02-25T01:30:46.839Z,3.05
2019-02-25T01:31:46.837Z,3.06
2019-02-25T01:32:46.815Z,3.09
2019-02-25T01:33:46.805Z,3.07
2019-02-25T01:34:46.794Z,3.07
2019-02-25T01:35:46.784Z,3.10
2019-02-25T01:36:46.774Z,3.10
2019-02-25T01:37:46.780Z,3.06
2019-02-25T01:38:46.754Z,3.03
2019-02-25T01:39:46.742Z,3.03
2019-02-25T01:40:46.733Z,3.00
2019-02-25T01:41:46.722Z,2.97
2019-02-25T01:42:46.712Z,2.95
2019-02-25T01:43:46.713Z,2.95
2019-02-25T01:44:46.693Z,2.84
2019-02-25T01:45:46.680Z,2.88
2019-02-25T01:46:46.670Z,2.88
2019-02-25T01:47:46.662Z,2.89
2019-02-25T01:48:46.649Z,2.88
2019-02-25T01:49:46.652Z,2.84
2019-02-25T01:50:46.631Z,2.77
2019-02-25T01:51:46.622Z,2.91
2019-02-25T01:52:46.609Z,2.88
2019-02-25T01:53:46.597Z,2.84
2019-02-25T01:54:46.591Z,2.76
2019-02-25T01:55:46.588Z,2.81
2019-02-25T01:56:46.566Z,2.82
2019-02-25T01:57:46.555Z,2.81
2019-02-25T01:58:46.547Z,2.81
2019-02-25T01:59:46.534Z,2.79
2019-02-25T02:00:46.527Z,2.77
2019-02-25T02:01:46.524Z,2.73
2019-02-25T02:02:46.502Z,2.79
2019-02-25T02:03:46.493Z,2.79
2019-02-25T02:04:46.487Z,2.81
2019-02-25T02:05:46.473Z,2.87
2019-02-25T02:06:46.460Z,2.87
2019-02-25T02:07:46.460Z,2.91
2019-02-25T02:08:46.442Z,2.87
2019-02-25T02:09:46.430Z,2.88
2019-02-25T02:10:46.419Z,2.91
2019-02-25T02:11:46.409Z,2.91
2019-02-25T02:12:46.402Z,2.87
2019-02-25T02:13:46.402Z,2.85
2019-02-25T02:14:46.377Z,2.71
2019-02-25T02:15:46.371Z,2.73
2019-02-25T02:16:46.357Z,2.67
2019-02-25T02:17:46.353Z,2.61
2019-02-25T02:18:46.336Z,2.58
2019-02-25T02:19:46.337Z,2.49
2019-02-25T02:20:46.315Z,2.59
2019-02-25T02:21:46.304Z,2.56
2019-02-25T02:22:46.344Z,2.53
2019-02-25T02:23:46.286Z,2.55
2019-02-25T02:24:46.273Z,2.58
2019-02-25T02:25:46.275Z,2.48
2019-02-25T02:26:46.254Z,2.35
2019-02-25T02:27:46.242Z,2.34
2019-02-25T02:28:46.232Z,2.30
2019-02-25T02:29:46.225Z,2.17
2019-02-25T02:30:46.212Z,2.17
2019-02-25T02:31:46.309Z,2.06
2019-02-25T02:32:46.191Z,2.09
2019-02-25T02:33:46.190Z,1.89
2019-02-25T02:34:46.173Z,1.83
2019-02-25T02:35:46.174Z,1.82
2019-02-25T02:36:46.149Z,1.76
2019-02-25T02:37:46.154Z,1.85
2019-02-25T02:38:46.129Z,1.82
2019-02-25T02:39:46.117Z,1.87
2019-02-25T02:40:46.106Z,1.89
2019-02-25T02:41:46.096Z,1.91
2019-02-25T02:42:46.088Z,1.97
2019-02-25T02:43:46.091Z,2.02
2019-02-25T02:44:46.065Z,2.09
2019-02-25T02:45:46.053Z,2.10
2019-02-25T02:46:46.042Z,2.13
2019-02-25T02:47:46.036Z,2.08
2019-02-25T02:48:46.024Z,2.15
2019-02-25T02:49:46.024Z,2.12
2019-02-25T02:50:45.999Z,2.22
2019-02-25T02:51:45.989Z,2.20
2019-02-25T02:52:45.991Z,2.16
2019-02-25T02:53:45.968Z,2.15
2019-02-25T02:54:45.981Z,2.20
2019-02-25T02:55:45.959Z,2.19
2019-02-25T02:56:45.936Z,2.23
2019-02-25T02:57:45.925Z,2.22
2019-02-25T02:58:45.915Z,2.23
2019-02-25T02:59:45.914Z,2.12
2019-02-25T03:00:45.895Z,2.23
2019-02-25T03:01:45.892Z,2.22
2019-02-25T03:02:45.871Z,2.20
2019-02-25T03:03:45.859Z,2.19
2019-02-25T03:04:45.850Z,2.09
2019-02-25T03:05:45.838Z,2.17
2019-02-25T03:06:45.835Z,2.19
2019-02-25T03:07:45.833Z,2.15
2019-02-25T03:08:45.807Z,2.08
2019-02-25T03:09:45.795Z,2.09
2019-02-25T03:10:45.784Z,2.12
2019-02-25T03:11:45.779Z,2.02
2019-02-25T03:12:45.764Z,1.99
2019-02-25T03:13:45.765Z,2.06
2019-02-25T03:14:45.741Z,2.06
2019-02-25T03:15:45.731Z,2.06
2019-02-25T03:16:45.721Z,2.09
2019-02-25T03:17:45.710Z,2.10
2019-02-25T03:18:45.702Z,2.08
2019-02-25T03:19:45.700Z,2.08
2019-02-25T03:20:45.677Z,2.02
2019-02-25T03:21:45.671Z,2.08
2019-02-25T03:22:45.657Z,2.10
2019-02-25T03:23:45.646Z,2.08
2019-02-25T03:24:45.638Z,2.12
2019-02-25T03:25:45.633Z,2.04
2019-02-25T03:26:45.615Z,1.76
2019-02-25T03:27:45.601Z,1.72
2019-02-25T03:28:45.594Z,1.60
2019-02-25T03:29:45.581Z,1.58
2019-02-25T03:30:45.588Z,1.58
2019-02-25T03:31:45.587Z,1.61
2019-02-25T03:32:45.550Z,1.58
2019-02-25T03:33:45.542Z,1.62
2019-02-25T03:34:45.529Z,1.72
2019-02-25T03:35:45.518Z,1.71
2019-02-25T03:36:45.507Z,1.65
2019-02-25T03:37:45.508Z,1.60
2019-02-25T03:38:45.485Z,1.62
2019-02-25T03:39:45.474Z,1.60
2019-02-25T03:40:45.464Z,1.64
2019-02-25T03:41:45.457Z,1.60
2019-02-25T03:42:45.443Z,1.72
2019-02-25T03:43:45.443Z,1.75
2019-02-25T03:44:45.424Z,1.75
2019-02-25T03:45:45.412Z,1.76
2019-02-25T03:46:45.408Z,1.87
2019-02-25T03:47:45.390Z,1.82
2019-02-25T03:48:45.384Z,1.82
2019-02-25T03:49:45.391Z,1.80
2019-02-25T03:50:45.358Z,1.78
2019-02-25T03:51:45.354Z,1.72
2019-02-25T03:52:45.337Z,1.42
2019-02-25T03:53:45.329Z,1.34
2019-02-25T03:54:45.318Z,1.26
2019-02-25T03:55:45.316Z,1.32
2019-02-25T03:56:45.297Z,1.33
2019-02-25T03:57:45.296Z,1.28
2019-02-25T03:58:45.275Z,1.26
2019-02-25T03:59:45.266Z,1.28
2019-02-25T04:00:45.257Z,1.33
2019-02-25T04:01:45.256Z,1.36
2019-02-25T04:02:45.233Z,1.36
2019-02-25T04:03:45.225Z,1.47
2019-02-25T04:04:45.212Z,1.47
2019-02-25T04:05:45.203Z,1.54
2019-02-25T04:06:45.195Z,1.57
2019-02-25T04:07:45.191Z,1.57
2019-02-25T04:08:45.171Z,1.50
2019-02-25T04:09:45.162Z,1.58
2019-02-25T04:10:45.153Z,1.54
2019-02-25T04:11:45.138Z,1.52
2019-02-25T04:12:45.144Z,1.58
2019-02-25T04:13:45.128Z,1.64
2019-02-25T04:14:45.108Z,1.52
2019-02-25T04:15:45.121Z,1.61
2019-02-25T04:16:45.088Z,1.61
2019-02-25T04:17:45.075Z,1.54
2019-02-25T04:18:45.065Z,1.57
2019-02-25T04:19:45.065Z,1.51
2019-02-25T04:20:45.050Z,1.47
2019-02-25T04:21:45.033Z,1.55
2019-02-25T04:22:45.024Z,1.52
2019-02-25T04:23:45.014Z,1.52
2019-02-25T04:24:45.010Z,1.39
2019-02-25T04:25:45.001Z,1.50
2019-02-25T04:26:44.984Z,1.43
2019-02-25T04:27:44.971Z,1.46
2019-02-25T04:28:44.960Z,1.40
2019-02-25T04:29:44.951Z,1.44
2019-02-25T04:30:44.940Z,1.52
2019-02-25T04:31:44.940Z,1.44
2019-02-25T04:32:44.919Z,1.50
2019-02-25T04:33:44.912Z,1.47
2019-02-25T04:34:44.897Z,1.46
2019-02-25T04:35:44.887Z,1.51
2019-02-25T04:36:44.876Z,1.42
2019-02-25T04:37:44.877Z,1.46
2019-02-25T04:38:44.860Z,1.46
2019-02-25T04:39:44.846Z,1.42
2019-02-25T04:40:44.835Z,1.46
2019-02-25T04:41:44.824Z,1.57
2019-02-25T04:42:44.835Z,1.44
2019-02-25T04:43:44.820Z,1.54
2019-02-25T04:44:44.794Z,1.46
2019-02-25T04:45:44.782Z,1.55
2019-02-25T04:46:44.772Z,1.51
2019-02-25T04:47:44.772Z,1.55
2019-02-25T04:48:44.751Z,1.47
2019-02-25T04:49:44.750Z,1.47
2019-02-25T04:50:44.730Z,1.54
2019-02-25T04:51:44.720Z,1.39
2019-02-25T04:52:44.709Z,1.37
2019-02-25T04:53:44.700Z,1.40
2019-02-25T04:54:44.689Z,1.40
2019-02-25T04:55:44.692Z,1.40
2019-02-25T04:56:44.680Z,1.36
2019-02-25T04:57:44.658Z,1.39
2019-02-25T04:58:44.648Z,1.44
2019-02-25T04:59:44.639Z,1.46
2019-02-25T05:00:44.627Z,1.39
2019-02-25T05:01:44.626Z,1.37
2019-02-25T05:02:44.609Z,1.42
2019-02-25T05:03:44.596Z,1.42
2019-02-25T05:04:44.585Z,1.51
2019-02-25T05:05:44.575Z,1.40
2019-02-25T05:06:44.564Z,1.51
2019-02-25T05:07:44.566Z,1.46
2019-02-25T05:08:44.543Z,1.37
2019-02-25T05:09:44.532Z,1.37
2019-02-25T05:10:44.521Z,1.39
2019-02-25T05:11:44.514Z,1.39
2019-02-25T05:12:44.500Z,1.39
2019-02-25T05:13:44.502Z,1.43
2019-02-25T05:14:44.479Z,1.36
2019-02-25T05:15:44.469Z,1.37
2019-02-25T05:16:44.459Z,1.37
2019-02-25T05:17:44.469Z,1.34
2019-02-25T05:18:44.442Z,1.34
2019-02-25T05:19:44.437Z,1.29
2019-02-25T05:20:44.416Z,1.29
2019-02-25T05:21:44.406Z,1.26
2019-02-25T05:22:44.395Z,1.28
2019-02-25T05:23:44.388Z,1.32
2019-02-25T05:24:44.375Z,1.24
2019-02-25T05:25:44.376Z,1.22
2019-02-25T05:26:44.366Z,1.25
2019-02-25T05:27:44.353Z,1.29
2019-02-25T05:28:44.332Z,1.21
2019-02-25T05:29:44.347Z,1.32
2019-02-25T05:30:44.312Z,1.29
2019-02-25T05:31:44.323Z,1.24
2019-02-25T05:32:44.297Z,1.18
2019-02-25T05:33:44.281Z,1.26
2019-02-25T05:34:44.270Z,1.24
2019-02-25T05:35:44.268Z,1.29
2019-02-25T05:36:44.249Z,1.34
2019-02-25T05:37:44.255Z,1.26
2019-02-25T05:38:44.230Z,1.25
2019-02-25T05:39:44.220Z,1.24
2019-02-25T05:40:44.210Z,1.25
2019-02-25T05:41:44.197Z,1.39
2019-02-25T05:42:44.189Z,1.29
2019-02-25T05:43:44.187Z,1.39
2019-02-25T05:44:44.170Z,1.29
2019-02-25T05:45:44.155Z,1.34
2019-02-25T05:46:44.145Z,1.22
2019-02-25T05:47:44.135Z,1.29
2019-02-25T05:48:44.127Z,1.37
2019-02-25T05:49:44.123Z,1.28
2019-02-25T05:50:44.103Z,1.22
2019-02-25T05:51:44.138Z,1.21
2019-02-25T05:52:44.081Z,1.32
2019-02-25T05:53:44.074Z,1.28
2019-02-25T05:54:44.061Z,1.29
2019-02-25T05:55:44.063Z,1.29
2019-02-25T05:56:44.040Z,1.37
2019-02-25T05:57:44.031Z,1.32
2019-02-25T05:58:44.034Z,1.36
2019-02-25T05:59:44.013Z,1.36
2019-02-25T06:00:43.999Z,1.33
2019-02-25T06:01:44.000Z,1.28
2019-02-25T06:02:43.977Z,1.28
2019-02-25T06:03:43.968Z,1.37
2019-02-25T06:04:43.956Z,1.28
2019-02-25T06:05:43.946Z,1.22
2019-02-25T06:06:43.946Z,1.28
2019-02-25T06:07:43.938Z,1.29
2019-02-25T06:08:43.914Z,1.12
2019-02-25T06:09:43.908Z,1.10
2019-02-25T06:10:43.893Z,1.00
2019-02-25T06:11:43.883Z,0.96
2019-02-25T06:12:43.872Z,0.97
2019-02-25T06:13:43.873Z,0.88
2019-02-25T06:14:43.852Z,0.98
2019-02-25T06:15:43.842Z,1.01
2019-02-25T06:16:43.831Z,1.06
2019-02-25T06:17:43.821Z,1.07
2019-02-25T06:18:43.811Z,1.00
2019-02-25T06:19:43.810Z,1.00
2019-02-25T06:20:43.799Z,1.03
2019-02-25T06:21:43.779Z,1.00
2019-02-25T06:22:43.770Z,1.14
2019-02-25T06:23:43.758Z,1.19
2019-02-25T06:24:43.747Z,1.12
2019-02-25T06:25:43.748Z,1.18
2019-02-25T06:26:43.728Z,1.16
2019-02-25T06:27:43.715Z,1.16
2019-02-25T06:28:43.792Z,1.18
2019-02-25T06:29:43.695Z,1.10
2019-02-25T06:30:43.684Z,1.14
2019-02-25T06:31:43.727Z,1.10
2019-02-25T06:32:43.663Z,0.98
2019-02-25T06:33:43.653Z,1.08
2019-02-25T06:34:43.642Z,1.08
2019-02-25T06:35:43.632Z,1.08
2019-02-25T06:36:43.644Z,1.04
2019-02-25T06:37:43.646Z,1.00
2019-02-25T06:38:43.600Z,1.06
2019-02-25T06:39:43.599Z,0.98
2019-02-25T06:40:43.579Z,1.01
2019-02-25T06:41:43.568Z,1.19
2019-02-25T06:42:43.558Z,1.19
2019-02-25T06:43:43.558Z,1.08
2019-02-25T06:44:43.537Z,1.12
2019-02-25T06:45:43.527Z,1.15
2019-02-25T06:46:43.516Z,1.15
2019-02-25T06:47:43.506Z,1.16
2019-02-25T06:48:43.495Z,1.14
2019-02-25T06:49:43.504Z,1.14
2019-02-25T06:50:43.474Z,1.14
2019-02-25T06:51:43.467Z,1.04
2019-02-25T06:52:43.453Z,1.06
2019-02-25T06:53:43.443Z,1.03
2019-02-25T06:54:43.433Z,1.03
2019-02-25T06:55:43.433Z,1.06
2019-02-25T06:56:43.411Z,1.10
2019-02-25T06:57:43.401Z,1.14
2019-02-25T06:58:43.394Z,1.15
2019-02-25T06:59:43.381Z,1.28
2019-02-25T07:00:43.370Z,1.24
2019-02-25T07:01:43.370Z,1.19
2019-02-25T07:02:43.352Z,1.22
2019-02-25T07:03:43.742Z,1.21
2019-02-25T07:04:43.328Z,1.26
2019-02-25T07:05:43.317Z,1.33
2019-02-25T07:06:43.306Z,1.25
2019-02-25T07:07:43.307Z,1.39
2019-02-25T07:08:43.287Z,1.33
2019-02-25T07:09:43.275Z,1.47
2019-02-25T07:10:43.263Z,1.43
2019-02-25T07:11:43.253Z,1.55
2019-02-25T07:12:43.242Z,1.55
2019-02-25T07:13:43.243Z,1.65
2019-02-25T07:14:43.221Z,1.75
2019-02-25T07:15:43.211Z,1.75
2019-02-25T07:16:43.199Z,1.85
2019-02-25T07:17:43.188Z,1.78
2019-02-25T07:18:43.178Z,1.73
2019-02-25T07:19:43.177Z,1.89
2019-02-25T07:20:43.157Z,1.94
2019-02-25T07:21:43.146Z,2.04
2019-02-25T07:22:43.135Z,2.17
2019-02-25T07:23:43.126Z,2.23
2019-02-25T07:24:52.430Z,2.38
2019-02-25T07:25:44.116Z,2.45
2019-02-25T07:26:43.095Z,2.63
2019-02-25T07:27:43.088Z,2.69
2019-02-25T07:28:43.073Z,2.82
2019-02-25T07:29:43.062Z,2.91
2019-02-25T07:30:43.056Z,3.09
2019-02-25T07:31:43.059Z,3.16
2019-02-25T07:32:43.031Z,3.28
2019-02-25T07:33:43.020Z,3.30
2019-02-25T07:34:43.027Z,3.49
2019-02-25T07:35:43.000Z,3.53
2019-02-25T07:36:42.993Z,3.58
2019-02-25T07:37:42.995Z,3.78
2019-02-25T07:38:42.967Z,3.96
2019-02-25T07:39:42.957Z,4.01
2019-02-25T07:40:42.945Z,4.21
2019-02-25T07:41:42.935Z,4.24
2019-02-25T07:42:42.923Z,4.42
2019-02-25T07:43:42.928Z,4.50
2019-02-25T07:44:42.901Z,4.62
2019-02-25T07:45:42.890Z,4.69
2019-02-25T07:46:42.881Z,4.80
2019-02-25T07:47:42.872Z,5.04
2019-02-25T07:48:42.858Z,5.10
2019-02-25T07:49:42.863Z,5.23
2019-02-25T07:50:47.128Z,5.32
2019-02-25T07:51:42.826Z,5.40
2019-02-25T07:52:42.814Z,5.41
2019-02-25T07:53:42.805Z,5.49
2019-02-25T07:54:42.794Z,5.56
2019-02-25T07:55:42.796Z,5.67
2019-02-25T07:56:42.773Z,5.74
2019-02-25T07:57:42.762Z,5.78
2019-02-25T07:58:42.750Z,5.86
2019-02-25T07:59:42.747Z,6.00
2019-02-25T08:00:42.728Z,6.06
2019-02-25T08:01:42.729Z,6.13
2019-02-25T08:02:42.706Z,6.16
2019-02-25T08:03:42.696Z,6.13
2019-02-25T08:04:42.684Z,6.22
2019-02-25T08:05:42.674Z,6.35
2019-02-25T08:06:42.663Z,6.38
2019-02-25T08:07:42.663Z,6.46
2019-02-25T08:08:42.643Z,6.62
2019-02-25T08:09:42.630Z,6.62
2019-02-25T08:10:42.619Z,6.69
2019-02-25T08:11:42.613Z,6.79
2019-02-25T08:12:42.598Z,6.77
2019-02-25T08:13:42.599Z,6.94
2019-02-25T08:14:42.576Z,6.94
2019-02-25T08:15:42.566Z,7.02
2019-02-25T08:16:42.554Z,7.12
2019-02-25T08:17:42.545Z,6.95
2019-02-25T08:18:42.548Z,7.01
2019-02-25T08:19:42.532Z,6.95
2019-02-25T08:20:42.512Z,6.83
2019-02-25T08:21:42.501Z,6.59
2019-02-25T08:22:42.491Z,6.63
2019-02-25T08:23:42.480Z,6.87
2019-02-25T08:24:42.472Z,6.84
2019-02-25T08:25:42.470Z,6.72
2019-02-25T08:26:42.446Z,6.61
2019-02-25T08:27:42.436Z,6.51
2019-02-25T08:28:42.424Z,6.41
2019-02-25T08:29:42.414Z,6.48
2019-02-25T08:30:42.403Z,6.59
2019-02-25T08:31:42.406Z,6.72
2019-02-25T08:32:42.381Z,6.77
2019-02-25T08:33:42.373Z,6.90
2019-02-25T08:34:42.360Z,6.84
2019-02-25T08:35:42.348Z,6.80
2019-02-25T08:36:42.336Z,6.94
2019-02-25T08:37:42.336Z,6.95
2019-02-25T08:38:42.315Z,7.12
2019-02-25T08:39:42.303Z,7.07
2019-02-25T08:40:42.293Z,7.16
2019-02-25T08:41:42.282Z,7.08
2019-02-25T08:42:42.271Z,7.12
2019-02-25T08:43:42.274Z,7.19
2019-02-25T08:44:42.252Z,7.17
2019-02-25T08:45:42.238Z,7.38
2019-02-25T08:46:42.232Z,7.52
2019-02-25T08:47:42.223Z,7.62
2019-02-25T08:48:42.208Z,7.77
2019-02-25T08:49:42.208Z,7.78
2019-02-25T08:50:42.185Z,7.78
2019-02-25T08:51:42.174Z,7.82
2019-02-25T08:52:42.175Z,7.87
2019-02-25T08:53:42.154Z,8.00
2019-02-25T08:54:42.147Z,8.04
2019-02-25T08:55:42.157Z,8.11
2019-02-25T08:56:42.121Z,8.26
2019-02-25T08:57:42.110Z,8.22
2019-02-25T08:58:42.807Z,8.22
2019-02-25T08:59:42.087Z,8.14
2019-02-25T09:00:42.076Z,8.22
2019-02-25T09:01:42.079Z,8.26
2019-02-25T09:02:42.054Z,8.42
2019-02-25T09:03:42.043Z,8.48
2019-02-25T09:04:42.032Z,8.51
2019-02-25T09:05:42.021Z,8.53
2019-02-25T09:06:42.010Z,8.66
2019-02-25T09:07:42.772Z,8.73
2019-02-25T09:08:41.988Z,8.73
2019-02-25T09:09:41.988Z,8.97
2019-02-25T09:10:41.965Z,9.09
2019-02-25T09:11:41.982Z,9.28
2019-02-25T09:12:41.944Z,9.23
2019-02-25T09:13:41.943Z,9.32
2019-02-25T09:14:41.925Z,9.38
2019-02-25T09:15:41.912Z,9.42
2019-02-25T09:16:41.901Z,9.49
2019-02-25T09:17:41.891Z,9.50
2019-02-25T09:18:41.880Z,9.57
2019-02-25T09:19:41.882Z,9.70
2019-02-25T09:20:41.859Z,9.71
2019-02-25T09:21:41.851Z,9.45
2019-02-25T09:22:41.837Z,9.18
2019-02-25T09:23:41.826Z,9.10
2019-02-25T09:24:41.814Z,8.88
2019-02-25T09:25:41.816Z,8.91
2019-02-25T09:26:41.793Z,8.87
2019-02-25T09:27:41.792Z,9.09
2019-02-25T09:28:41.771Z,9.05
2019-02-25T09:29:41.761Z,9.01
2019-02-25T09:30:41.750Z,8.93
2019-02-25T09:31:41.765Z,9.01
2019-02-25T09:32:41.730Z,9.20
2019-02-25T09:33:41.726Z,9.25
2019-02-25T09:34:41.708Z,9.16
2019-02-25T09:35:41.698Z,9.10
2019-02-25T09:36:41.687Z,9.13
2019-02-25T09:37:41.687Z,9.24
2019-02-25T09:38:41.665Z,9.16
2019-02-25T09:39:41.653Z,9.21
2019-02-25T09:40:41.643Z,9.45
2019-02-25T09:41:41.632Z,9.60
2019-02-25T09:42:41.622Z,9.68
2019-02-25T09:43:41.629Z,9.85
2019-02-25T09:44:41.601Z,9.97
2019-02-25T09:45:41.589Z,10.10
2019-02-25T09:46:41.580Z,10.21
2019-02-25T09:47:41.569Z,10.18
2019-02-25T09:48:41.558Z,10.15
2019-02-25T09:49:41.557Z,10.24
2019-02-25T09:50:41.536Z,10.30
2019-02-25T09:51:41.524Z,10.34
2019-02-25T09:52:41.515Z,10.37
2019-02-25T09:53:41.505Z,10.47
2019-02-25T09:54:41.494Z,10.53
2019-02-25T09:55:41.495Z,10.40
2019-02-25T09:56:41.475Z,10.43
2019-02-25T09:57:41.462Z,10.24
2019-02-25T09:58:41.450Z,10.30
2019-02-25T09:59:41.441Z,10.36
2019-02-25T10:00:41.429Z,10.47
2019-02-25T10:01:41.433Z,10.44
2019-02-25T10:02:41.408Z,10.55
2019-02-25T10:03:41.396Z,10.59
2019-02-25T10:04:41.392Z,10.63
2019-02-25T10:05:41.375Z,10.68
2019-02-25T10:06:41.366Z,10.66
2019-02-25T10:07:41.366Z,10.68
2019-02-25T10:08:41.342Z,10.76
2019-02-25T10:09:41.333Z,10.66
2019-02-25T10:10:41.321Z,10.73
2019-02-25T10:11:41.313Z,10.91
2019-02-25T10:12:41.300Z,10.88
2019-02-25T10:13:41.298Z,10.86
2019-02-25T10:14:41.277Z,11.02
2019-02-25T10:15:41.266Z,10.99
2019-02-25T10:16:41.255Z,11.07
2019-02-25T10:17:41.245Z,11.06
2019-02-25T10:18:41.234Z,11.19
2019-02-25T10:19:41.234Z,11.21
2019-02-25T10:20:41.211Z,11.21
2019-02-25T10:21:41.202Z,11.02
2019-02-25T10:22:41.189Z,11.16
2019-02-25T10:23:41.187Z,11.20
2019-02-25T10:24:41.167Z,11.16
2019-02-25T10:25:41.174Z,11.13
2019-02-25T10:26:41.146Z,11.21
2019-02-25T10:27:41.134Z,11.21
2019-02-25T10:28:41.123Z,11.21
2019-02-25T10:29:41.113Z,11.28
2019-02-25T10:30:41.101Z,11.31
2019-02-25T10:31:41.708Z,11.24
2019-02-25T10:32:41.079Z,11.34
2019-02-25T10:33:41.068Z,11.38
2019-02-25T10:34:41.057Z,11.38
2019-02-25T10:35:41.054Z,11.50
2019-02-25T10:36:41.034Z,11.54
2019-02-25T10:37:41.471Z,11.59
2019-02-25T10:38:41.013Z,11.67
2019-02-25T10:39:41.658Z,11.68
2019-02-25T10:40:41.008Z,11.75
2019-02-25T10:41:40.980Z,11.68
2019-02-25T10:42:40.969Z,11.83
2019-02-25T10:43:40.971Z,11.75
2019-02-25T10:44:40.948Z,11.83
2019-02-25T10:45:41.565Z,11.85
2019-02-25T10:46:42.848Z,11.74
2019-02-25T10:47:42.007Z,11.75
2019-02-25T10:48:40.904Z,11.78
2019-02-25T10:49:40.906Z,11.87
2019-02-25T10:50:41.026Z,11.86
2019-02-25T10:51:41.726Z,11.85
2019-02-25T10:52:42.836Z,11.87
2019-02-25T10:53:40.850Z,12.01
2019-02-25T10:54:40.839Z,12.05
2019-02-25T10:55:44.533Z,12.05
2019-02-25T10:56:41.818Z,12.02
2019-02-25T10:57:40.808Z,12.12
2019-02-25T10:58:40.797Z,12.15
2019-02-25T10:59:41.485Z,12.27
2019-02-25T11:00:41.645Z,12.26
2019-02-25T11:01:41.430Z,12.27
2019-02-25T11:02:44.194Z,12.30
2019-02-25T11:03:40.743Z,12.41
2019-02-25T11:04:40.733Z,12.34
2019-02-25T11:05:40.722Z,12.41
2019-02-25T11:06:40.712Z,12.44
2019-02-25T11:07:42.030Z,12.46
2019-02-25T11:08:41.484Z,12.46
2019-02-25T11:09:42.043Z,12.49
2019-02-25T11:10:40.669Z,12.49
2019-02-25T11:11:40.658Z,12.49
2019-02-25T11:12:40.650Z,12.52
2019-02-25T11:13:40.653Z,12.62
2019-02-25T11:14:41.766Z,12.60
2019-02-25T11:15:42.409Z,12.60
2019-02-25T11:16:41.930Z,12.66
2019-02-25T11:17:40.596Z,12.77
2019-02-25T11:18:40.712Z,12.74
2019-02-25T11:19:40.584Z,12.75
2019-02-25T11:20:40.566Z,12.77
2019-02-25T11:21:42.166Z,12.74
2019-02-25T11:22:42.392Z,12.79
2019-02-25T11:23:40.529Z,12.78
2019-02-25T11:24:40.516Z,12.81
2019-02-25T11:25:40.521Z,12.77
2019-02-25T11:26:40.496Z,12.79
2019-02-25T11:27:40.488Z,12.82
2019-02-25T11:28:41.239Z,12.85
2019-02-25T11:29:42.033Z,12.89
2019-02-25T11:30:40.453Z,12.81
2019-02-25T11:31:40.456Z,12.85
2019-02-25T11:32:40.430Z,12.89
2019-02-25T11:33:40.419Z,13.02
2019-02-25T11:34:40.408Z,13.04
2019-02-25T11:35:41.106Z,13.09
2019-02-25T11:36:40.386Z,13.12
2019-02-25T11:37:40.385Z,13.15
2019-02-25T11:38:40.364Z,13.14
2019-02-25T11:39:40.352Z,13.15
2019-02-25T11:40:40.342Z,13.22
2019-02-25T11:41:41.083Z,13.18
2019-02-25T11:42:40.331Z,13.18
2019-02-25T11:43:40.328Z,13.22
2019-02-25T11:44:40.298Z,13.21
2019-02-25T11:45:40.286Z,13.25
2019-02-25T11:46:40.275Z,13.12
2019-02-25T11:47:40.265Z,13.22
2019-02-25T11:48:40.253Z,13.25
2019-02-25T11:49:40.252Z,13.22
2019-02-25T11:50:40.231Z,13.25
2019-02-25T11:51:40.221Z,13.36
2019-02-25T11:52:40.208Z,13.24
2019-02-25T11:53:40.197Z,13.29
2019-02-25T11:54:40.187Z,13.41
2019-02-25T11:55:40.188Z,13.44
2019-02-25T11:56:40.165Z,13.41
2019-02-25T11:57:40.153Z,13.47
2019-02-25T11:58:40.143Z,13.54
2019-02-25T11:59:40.132Z,13.51
2019-02-25T12:00:40.120Z,13.62
2019-02-25T12:01:40.123Z,13.49
2019-02-25T12:02:40.099Z,13.56
2019-02-25T12:03:40.088Z,13.69
2019-02-25T12:04:40.163Z,13.51
2019-02-25T12:05:40.095Z,13.52
2019-02-25T12:06:40.055Z,13.49
2019-02-25T12:07:40.082Z,13.61
2019-02-25T12:08:40.034Z,13.59
2019-02-25T12:09:40.023Z,13.65
2019-02-25T12:10:40.013Z,13.62
2019-02-25T12:11:40.002Z,13.62
2019-02-25T12:12:39.989Z,13.77
2019-02-25T12:13:39.989Z,13.70
2019-02-25T12:14:39.968Z,13.80
2019-02-25T12:15:39.956Z,13.83
2019-02-25T12:16:39.946Z,13.88
2019-02-25T12:17:39.934Z,13.88
2019-02-25T12:18:39.924Z,13.79
2019-02-25T12:19:39.924Z,13.89
2019-02-25T12:20:39.903Z,13.92
2019-02-25T12:21:39.892Z,13.91
2019-02-25T12:22:39.882Z,13.98
2019-02-25T12:23:39.873Z,13.87
2019-02-25T12:24:39.860Z,13.95
2019-02-25T12:25:39.859Z,14.06
2019-02-25T12:26:39.839Z,14.06
2019-02-25T12:27:39.828Z,14.10
2019-02-25T12:28:39.817Z,14.27
2019-02-25T12:29:39.893Z,14.34
2019-02-25T12:30:39.796Z,14.32
2019-02-25T12:31:39.803Z,14.42
2019-02-25T12:32:39.775Z,14.49
2019-02-25T12:33:39.765Z,14.46
2019-02-25T12:34:39.753Z,14.46
2019-02-25T12:35:39.743Z,14.46
2019-02-25T12:36:39.733Z,14.46
2019-02-25T12:37:39.738Z,14.44
2019-02-25T12:38:39.711Z,14.42
2019-02-25T12:39:39.701Z,14.42
2019-02-25T12:40:39.690Z,14.50
2019-02-25T12:41:39.682Z,14.54
2019-02-25T12:42:39.668Z,14.47
2019-02-25T12:43:39.672Z,14.50
2019-02-25T12:44:39.649Z,14.49
2019-02-25T12:45:39.638Z,14.49
2019-02-25T12:46:39.625Z,14.52
2019-02-25T12:47:39.615Z,14.37
2019-02-25T12:48:39.604Z,14.52
2019-02-25T12:49:39.603Z,14.39
2019-02-25T12:50:39.583Z,14.49
2019-02-25T12:51:39.572Z,14.53
2019-02-25T12:52:39.561Z,14.61
2019-02-25T12:53:39.551Z,14.53
2019-02-25T12:54:39.539Z,14.56
2019-02-25T12:55:39.546Z,14.60
2019-02-25T12:56:39.521Z,14.52
2019-02-25T12:57:39.507Z,14.61
2019-02-25T12:58:39.496Z,14.61
2019-02-25T12:59:39.487Z,14.65
2019-02-25T13:00:39.476Z,14.57
2019-02-25T13:01:39.475Z,14.50
2019-02-25T13:02:39.455Z,14.53
2019-02-25T13:03:39.442Z,14.61
2019-02-25T13:04:39.432Z,14.72
2019-02-25T13:05:39.423Z,14.75
2019-02-25T13:06:39.411Z,14.78
2019-02-25T13:07:39.411Z,14.87
2019-02-25T13:08:39.390Z,14.75
2019-02-25T13:09:39.378Z,14.88
2019-02-25T13:10:39.370Z,14.95
2019-02-25T13:11:39.982Z,14.84